sensor_id;sensor_type;location;lat;lon;timestamp;temperature;humidity
66144;SHT31;52947;50.842;6.084;2023-02-12T00:00:42;6.69;93.31
66144;SHT31;52947;50.842;6.084;2023-02-12T00:03:10;6.70;93.45
66144;SHT31;52947;50.842;6.084;2023-02-12T00:05:39;6.70;93.50
66144;SHT31;52947;50.842;6.084;2023-02-12T00:08:08;6.76;93.53
66144;SHT31;52947;50.842;6.084;2023-02-12T00:10:39;6.88;93.08
66144;SHT31;52947;50.842;6.084;2023-02-12T00:13:08;6.90;92.70
66144;SHT31;52947;50.842;6.084;2023-02-12T00:15:37;6.94;92.69
66144;SHT31;52947;50.842;6.084;2023-02-12T00:18:05;6.88;92.73
66144;SHT31;52947;50.842;6.084;2023-02-12T00:20:34;6.77;92.86
66144;SHT31;52947;50.842;6.084;2023-02-12T00:23:02;6.79;93.17
66144;SHT31;52947;50.842;6.084;2023-02-12T00:25:31;6.73;92.99
66144;SHT31;52947;50.842;6.084;2023-02-12T00:27:59;6.84;93.13
66144;SHT31;52947;50.842;6.084;2023-02-12T00:30:28;6.80;92.89
66144;SHT31;52947;50.842;6.084;2023-02-12T00:32:56;6.81;92.98
66144;SHT31;52947;50.842;6.084;2023-02-12T00:35:23;6.84;93.05
66144;SHT31;52947;50.842;6.084;2023-02-12T00:37:51;6.83;92.90
66144;SHT31;52947;50.842;6.084;2023-02-12T00:40:19;6.77;93.05
66144;SHT31;52947;50.842;6.084;2023-02-12T00:42:49;6.76;93.24
66144;SHT31;52947;50.842;6.084;2023-02-12T00:45:17;6.69;93.28
66144;SHT31;52947;50.842;6.084;2023-02-12T00:47:45;6.66;93.45
66144;SHT31;52947;50.842;6.084;2023-02-12T00:50:14;6.62;93.54
66144;SHT31;52947;50.842;6.084;2023-02-12T00:52:42;6.60;93.61
66144;SHT31;52947;50.842;6.084;2023-02-12T00:55:10;6.58;93.69
66144;SHT31;52947;50.842;6.084;2023-02-12T00:57:37;6.56;93.72
66144;SHT31;52947;50.842;6.084;2023-02-12T01:00:08;6.56;93.73
66144;SHT31;52947;50.842;6.084;2023-02-12T01:02:36;6.53;93.74
66144;SHT31;52947;50.842;6.084;2023-02-12T01:05:06;6.53;93.77
66144;SHT31;52947;50.842;6.084;2023-02-12T01:07:35;6.50;93.80
66144;SHT31;52947;50.842;6.084;2023-02-12T01:10:04;6.46;93.78
66144;SHT31;52947;50.842;6.084;2023-02-12T01:12:33;6.46;93.75
66144;SHT31;52947;50.842;6.084;2023-02-12T01:15:00;6.47;93.80
66144;SHT31;52947;50.842;6.084;2023-02-12T01:17:30;6.47;93.88
66144;SHT31;52947;50.842;6.084;2023-02-12T01:19:58;6.44;93.91
66144;SHT31;52947;50.842;6.084;2023-02-12T01:22:26;6.44;93.88
66144;SHT31;52947;50.842;6.084;2023-02-12T01:24:54;6.43;93.87
66144;SHT31;52947;50.842;6.084;2023-02-12T01:27:22;6.46;94.21
66144;SHT31;52947;50.842;6.084;2023-02-12T01:29:50;6.50;94.58
66144;SHT31;52947;50.842;6.084;2023-02-12T01:32:19;6.50;94.35
66144;SHT31;52947;50.842;6.084;2023-02-12T01:34:49;6.53;94.14
66144;SHT31;52947;50.842;6.084;2023-02-12T01:37:20;6.54;94.00
66144;SHT31;52947;50.842;6.084;2023-02-12T01:39:48;6.63;94.06
66144;SHT31;52947;50.842;6.084;2023-02-12T01:42:16;6.76;93.85
66144;SHT31;52947;50.842;6.084;2023-02-12T01:45:41;6.88;93.53
66144;SHT31;52947;50.842;6.084;2023-02-12T01:48:11;6.77;93.17
66144;SHT31;52947;50.842;6.084;2023-02-12T01:50:43;6.73;93.38
66144;SHT31;52947;50.842;6.084;2023-02-12T01:53:12;6.73;93.38
66144;SHT31;52947;50.842;6.084;2023-02-12T01:55:50;6.66;93.44
66144;SHT31;52947;50.842;6.084;2023-02-12T01:58:20;6.66;93.66
66144;SHT31;52947;50.842;6.084;2023-02-12T02:00:49;6.62;93.61
66144;SHT31;52947;50.842;6.084;2023-02-12T02:03:17;6.56;93.69
66144;SHT31;52947;50.842;6.084;2023-02-12T02:05:53;6.52;93.66
66144;SHT31;52947;50.842;6.084;2023-02-12T02:08:24;6.52;93.84
66144;SHT31;52947;50.842;6.084;2023-02-12T02:10:52;6.56;93.83
66144;SHT31;52947;50.842;6.084;2023-02-12T02:13:20;6.73;93.51
66144;SHT31;52947;50.842;6.084;2023-02-12T02:16:12;6.80;93.02
66144;SHT31;52947;50.842;6.084;2023-02-12T02:18:48;6.69;92.87
66144;SHT31;52947;50.842;6.084;2023-02-12T02:27:34;6.56;93.32
66144;SHT31;52947;50.842;6.084;2023-02-12T02:30:24;6.52;93.51
66144;SHT31;52947;50.842;6.084;2023-02-12T02:33:07;6.54;93.64
66144;SHT31;52947;50.842;6.084;2023-02-12T02:35:40;6.53;93.58
66144;SHT31;52947;50.842;6.084;2023-02-12T02:38:21;6.64;93.49
66144;SHT31;52947;50.842;6.084;2023-02-12T02:40:55;6.64;93.29
66144;SHT31;52947;50.842;6.084;2023-02-12T02:43:28;6.67;93.21
66144;SHT31;52947;50.842;6.084;2023-02-12T02:46:02;6.76;93.00
66144;SHT31;52947;50.842;6.084;2023-02-12T02:48:35;6.84;92.38
66144;SHT31;52947;50.842;6.084;2023-02-12T02:51:08;6.81;92.24
66144;SHT31;52947;50.842;6.084;2023-02-12T02:53:38;6.74;92.43
66144;SHT31;52947;50.842;6.084;2023-02-12T02:56:13;6.67;92.58
66144;SHT31;52947;50.842;6.084;2023-02-12T02:58:45;6.63;92.76
66144;SHT31;52947;50.842;6.084;2023-02-12T03:01:19;6.57;92.96
66144;SHT31;52947;50.842;6.084;2023-02-12T03:03:52;6.54;92.94
66144;SHT31;52947;50.842;6.084;2023-02-12T03:06:25;6.53;93.14
66144;SHT31;52947;50.842;6.084;2023-02-12T03:08:56;6.56;93.19
66144;SHT31;52947;50.842;6.084;2023-02-12T03:11:27;6.60;92.89
66144;SHT31;52947;50.842;6.084;2023-02-12T03:14:00;6.63;93.03
66144;SHT31;52947;50.842;6.084;2023-02-12T03:16:33;6.63;92.98
66144;SHT31;52947;50.842;6.084;2023-02-12T03:19:04;6.71;92.76
66144;SHT31;52947;50.842;6.084;2023-02-12T03:21:40;6.64;92.57
66144;SHT31;52947;50.842;6.084;2023-02-12T03:24:12;6.67;92.68
66144;SHT31;52947;50.842;6.084;2023-02-12T03:26:46;6.69;92.76
66144;SHT31;52947;50.842;6.084;2023-02-12T03:29:15;6.66;92.80
66144;SHT31;52947;50.842;6.084;2023-02-12T03:31:57;6.62;92.70
66144;SHT31;52947;50.842;6.084;2023-02-12T03:34:34;6.57;92.78
66144;SHT31;52947;50.842;6.084;2023-02-12T03:37:09;6.57;92.69
66144;SHT31;52947;50.842;6.084;2023-02-12T03:39:46;6.54;92.78
66144;SHT31;52947;50.842;6.084;2023-02-12T03:42:20;6.50;92.86
66144;SHT31;52947;50.842;6.084;2023-02-12T03:44:52;6.49;92.98
66144;SHT31;52947;50.842;6.084;2023-02-12T03:47:30;6.47;93.08
66144;SHT31;52947;50.842;6.084;2023-02-12T03:50:09;6.54;93.17
66144;SHT31;52947;50.842;6.084;2023-02-12T03:52:38;6.66;92.82
66144;SHT31;52947;50.842;6.084;2023-02-12T03:55:07;6.64;92.54
66144;SHT31;52947;50.842;6.084;2023-02-12T03:57:39;6.62;92.54
66144;SHT31;52947;50.842;6.084;2023-02-12T04:00:10;6.58;92.69
66144;SHT31;52947;50.842;6.084;2023-02-12T04:02:42;6.66;92.69
66144;SHT31;52947;50.842;6.084;2023-02-12T04:05:16;6.81;92.15
66144;SHT31;52947;50.842;6.084;2023-02-12T04:07:44;6.77;91.93
66144;SHT31;52947;50.842;6.084;2023-02-12T04:10:13;6.77;92.04
66144;SHT31;52947;50.842;6.084;2023-02-12T04:12:46;6.71;92.22
66144;SHT31;52947;50.842;6.084;2023-02-12T04:15:33;6.64;92.26
66144;SHT31;52947;50.842;6.084;2023-02-12T04:18:09;6.69;92.32
66144;SHT31;52947;50.842;6.084;2023-02-12T04:20:46;6.62;92.42
66144;SHT31;52947;50.842;6.084;2023-02-12T04:23:23;6.64;92.61
66144;SHT31;52947;50.842;6.084;2023-02-12T04:26:03;6.60;92.53
66144;SHT31;52947;50.842;6.084;2023-02-12T04:28:38;6.60;92.59
66144;SHT31;52947;50.842;6.084;2023-02-12T04:31:15;6.57;92.58
66144;SHT31;52947;50.842;6.084;2023-02-12T04:33:55;6.60;92.47
66144;SHT31;52947;50.842;6.084;2023-02-12T04:36:27;6.57;92.55
66144;SHT31;52947;50.842;6.084;2023-02-12T04:38:57;6.52;92.61
66144;SHT31;52947;50.842;6.084;2023-02-12T04:41:27;6.47;92.61
66144;SHT31;52947;50.842;6.084;2023-02-12T04:43:57;6.54;92.65
66144;SHT31;52947;50.842;6.084;2023-02-12T04:46:25;6.60;92.40
66144;SHT31;52947;50.842;6.084;2023-02-12T04:48:56;6.58;92.47
66144;SHT31;52947;50.842;6.084;2023-02-12T04:51:24;6.60;92.45
66144;SHT31;52947;50.842;6.084;2023-02-12T04:53:52;6.56;92.43
66144;SHT31;52947;50.842;6.084;2023-02-12T04:56:20;6.57;92.48
66144;SHT31;52947;50.842;6.084;2023-02-12T04:58:48;6.54;92.60
66144;SHT31;52947;50.842;6.084;2023-02-12T05:01:15;6.54;92.47
66144;SHT31;52947;50.842;6.084;2023-02-12T05:03:43;6.62;92.47
66144;SHT31;52947;50.842;6.084;2023-02-12T05:06:13;6.54;92.50
66144;SHT31;52947;50.842;6.084;2023-02-12T05:08:41;6.54;92.55
66144;SHT31;52947;50.842;6.084;2023-02-12T05:11:10;6.52;92.61
66144;SHT31;52947;50.842;6.084;2023-02-12T05:13:37;6.49;92.59
66144;SHT31;52947;50.842;6.084;2023-02-12T05:16:07;6.47;92.58
66144;SHT31;52947;50.842;6.084;2023-02-12T05:18:35;6.50;92.54
66144;SHT31;52947;50.842;6.084;2023-02-12T05:21:03;6.52;92.40
66144;SHT31;52947;50.842;6.084;2023-02-12T05:23:36;6.46;92.29
66144;SHT31;52947;50.842;6.084;2023-02-12T05:26:06;6.42;92.47
66144;SHT31;52947;50.842;6.084;2023-02-12T05:28:34;6.43;92.66
66144;SHT31;52947;50.842;6.084;2023-02-12T05:31:05;6.49;92.58
66144;SHT31;52947;50.842;6.084;2023-02-12T05:33:33;6.49;92.57
66144;SHT31;52947;50.842;6.084;2023-02-12T05:36:06;6.49;92.43
66144;SHT31;52947;50.842;6.084;2023-02-12T05:38:35;6.44;92.57
66144;SHT31;52947;50.842;6.084;2023-02-12T05:41:04;6.42;92.71
66144;SHT31;52947;50.842;6.084;2023-02-12T05:43:33;6.42;92.80
66144;SHT31;52947;50.842;6.084;2023-02-12T05:46:02;6.44;92.79
66144;SHT31;52947;50.842;6.084;2023-02-12T05:48:30;6.44;92.75
66144;SHT31;52947;50.842;6.084;2023-02-12T05:51:03;6.64;93.84
66144;SHT31;52947;50.842;6.084;2023-02-12T05:53:31;6.81;94.11
66144;SHT31;52947;50.842;6.084;2023-02-12T05:56:08;7.07;94.22
66144;SHT31;52947;50.842;6.084;2023-02-12T05:58:37;7.28;93.85
66144;SHT31;52947;50.842;6.084;2023-02-12T06:01:09;7.22;93.39
66144;SHT31;52947;50.842;6.084;2023-02-12T06:03:37;7.16;93.20
66144;SHT31;52947;50.842;6.084;2023-02-12T06:06:05;7.26;93.27
66144;SHT31;52947;50.842;6.084;2023-02-12T06:08:34;7.24;92.88
66144;SHT31;52947;50.842;6.084;2023-02-12T06:11:05;7.11;92.76
66144;SHT31;52947;50.842;6.084;2023-02-12T06:13:34;7.14;93.14
66144;SHT31;52947;50.842;6.084;2023-02-12T06:16:02;7.25;92.86
66144;SHT31;52947;50.842;6.084;2023-02-12T06:18:30;7.15;92.47
66144;SHT31;52947;50.842;6.084;2023-02-12T06:20:58;7.26;92.76
66144;SHT31;52947;50.842;6.084;2023-02-12T06:23:26;7.41;92.45
66144;SHT31;52947;50.842;6.084;2023-02-12T06:25:55;7.55;92.06
66144;SHT31;52947;50.842;6.084;2023-02-12T06:28:23;7.51;91.46
66144;SHT31;52947;50.842;6.084;2023-02-12T06:30:53;7.42;91.39
66144;SHT31;52947;50.842;6.084;2023-02-12T06:33:21;7.41;91.69
66144;SHT31;52947;50.842;6.084;2023-02-12T06:35:49;7.49;91.63
66144;SHT31;52947;50.842;6.084;2023-02-12T06:38:16;7.51;91.31
66144;SHT31;52947;50.842;6.084;2023-02-12T06:40:44;7.51;91.23
66144;SHT31;52947;50.842;6.084;2023-02-12T06:43:12;7.41;91.18
66144;SHT31;52947;50.842;6.084;2023-02-12T06:45:40;7.39;91.47
66144;SHT31;52947;50.842;6.084;2023-02-12T06:48:10;7.42;91.47
66144;SHT31;52947;50.842;6.084;2023-02-12T06:50:37;7.22;91.36
66144;SHT31;52947;50.842;6.084;2023-02-12T06:53:05;7.28;91.63
66144;SHT31;52947;50.842;6.084;2023-02-12T06:55:33;7.08;91.47
66144;SHT31;52947;50.842;6.084;2023-02-12T06:58:01;7.09;91.91
66144;SHT31;52947;50.842;6.084;2023-02-12T07:00:29;6.95;92.04
66144;SHT31;52947;50.842;6.084;2023-02-12T07:02:57;7.07;92.51
66144;SHT31;52947;50.842;6.084;2023-02-12T07:05:26;7.09;92.23
66144;SHT31;52947;50.842;6.084;2023-02-12T07:07:54;7.22;92.29
66144;SHT31;52947;50.842;6.084;2023-02-12T07:10:22;7.39;91.92
66144;SHT31;52947;50.842;6.084;2023-02-12T07:12:50;7.34;91.40
66144;SHT31;52947;50.842;6.084;2023-02-12T07:15:17;7.14;91.63
66144;SHT31;52947;50.842;6.084;2023-02-12T07:17:45;7.18;92.17
66144;SHT31;52947;50.842;6.084;2023-02-12T07:20:13;7.18;92.23
66144;SHT31;52947;50.842;6.084;2023-02-12T07:22:42;7.43;92.23
66144;SHT31;52947;50.842;6.084;2023-02-12T07:25:10;7.49;91.39
66144;SHT31;52947;50.842;6.084;2023-02-12T07:27:38;7.35;91.41
66144;SHT31;52947;50.842;6.084;2023-02-12T07:30:07;7.36;91.85
66144;SHT31;52947;50.842;6.084;2023-02-12T07:32:35;7.39;91.63
66144;SHT31;52947;50.842;6.084;2023-02-12T07:35:03;7.51;91.68
66144;SHT31;52947;50.842;6.084;2023-02-12T07:37:32;7.56;91.23
66144;SHT31;52947;50.842;6.084;2023-02-12T07:40:02;7.61;91.06
66144;SHT31;52947;50.842;6.084;2023-02-12T07:42:30;7.61;90.88
66144;SHT31;52947;50.842;6.084;2023-02-12T07:45:04;7.52;91.01
66144;SHT31;52947;50.842;6.084;2023-02-12T07:47:33;7.58;91.30
66144;SHT31;52947;50.842;6.084;2023-02-12T07:50:05;7.53;91.09
66144;SHT31;52947;50.842;6.084;2023-02-12T07:52:33;7.62;91.24
66144;SHT31;52947;50.842;6.084;2023-02-12T07:55:03;7.66;90.86
66144;SHT31;52947;50.842;6.084;2023-02-12T07:57:31;7.77;90.74
66144;SHT31;52947;50.842;6.084;2023-02-12T07:59:59;7.86;90.65
66144;SHT31;52947;50.842;6.084;2023-02-12T08:02:26;7.73;90.48
66144;SHT31;52947;50.842;6.084;2023-02-12T08:04:55;7.61;90.53
66144;SHT31;52947;50.842;6.084;2023-02-12T08:07:23;7.58;90.95
66144;SHT31;52947;50.842;6.084;2023-02-12T08:09:51;7.67;90.62
66144;SHT31;52947;50.842;6.084;2023-02-12T08:12:21;7.82;90.79
66144;SHT31;52947;50.842;6.084;2023-02-12T08:14:49;7.86;90.09
66144;SHT31;52947;50.842;6.084;2023-02-12T08:17:17;7.86;90.13
66144;SHT31;52947;50.842;6.084;2023-02-12T08:19:45;7.96;90.14
66144;SHT31;52947;50.842;6.084;2023-02-12T08:22:12;8.14;89.95
66144;SHT31;52947;50.842;6.084;2023-02-12T08:24:40;8.27;89.51
66144;SHT31;52947;50.842;6.084;2023-02-12T08:27:08;8.37;89.12
66144;SHT31;52947;50.842;6.084;2023-02-12T08:29:38;8.42;88.75
66144;SHT31;52947;50.842;6.084;2023-02-12T08:32:06;8.44;88.75
66144;SHT31;52947;50.842;6.084;2023-02-12T08:34:36;8.55;88.69
66144;SHT31;52947;50.842;6.084;2023-02-12T08:37:05;8.76;88.04
66144;SHT31;52947;50.842;6.084;2023-02-12T08:39:33;8.83;87.48
66144;SHT31;52947;50.842;6.084;2023-02-12T08:42:01;8.89;87.29
66144;SHT31;52947;50.842;6.084;2023-02-12T08:44:29;8.78;86.53
66144;SHT31;52947;50.842;6.084;2023-02-12T08:46:58;8.59;86.98
66144;SHT31;52947;50.842;6.084;2023-02-12T08:49:28;8.71;87.48
66144;SHT31;52947;50.842;6.084;2023-02-12T08:51:58;8.88;87.66
66144;SHT31;52947;50.842;6.084;2023-02-12T08:54:28;8.95;87.56
66144;SHT31;52947;50.842;6.084;2023-02-12T08:56:58;8.96;87.57
66144;SHT31;52947;50.842;6.084;2023-02-12T08:59:26;9.00;87.49
66144;SHT31;52947;50.842;6.084;2023-02-12T09:01:54;8.93;87.76
66144;SHT31;52947;50.842;6.084;2023-02-12T09:04:25;9.02;87.52
66144;SHT31;52947;50.842;6.084;2023-02-12T09:06:54;9.00;87.23
66144;SHT31;52947;50.842;6.084;2023-02-12T09:09:22;9.02;87.43
66144;SHT31;52947;50.842;6.084;2023-02-12T09:11:50;9.07;87.35
66144;SHT31;52947;50.842;6.084;2023-02-12T09:14:18;9.05;87.06
66144;SHT31;52947;50.842;6.084;2023-02-12T09:16:50;9.15;87.27
66144;SHT31;52947;50.842;6.084;2023-02-12T09:19:19;9.17;87.01
66144;SHT31;52947;50.842;6.084;2023-02-12T09:21:50;9.22;86.95
66144;SHT31;52947;50.842;6.084;2023-02-12T09:24:21;9.17;86.81
66144;SHT31;52947;50.842;6.084;2023-02-12T09:26:49;9.24;86.83
66144;SHT31;52947;50.842;6.084;2023-02-12T09:29:17;9.36;86.59
66144;SHT31;52947;50.842;6.084;2023-02-12T09:31:46;9.37;86.54
66144;SHT31;52947;50.842;6.084;2023-02-12T09:34:15;9.40;86.41
66144;SHT31;52947;50.842;6.084;2023-02-12T09:36:43;9.41;86.22
66144;SHT31;52947;50.842;6.084;2023-02-12T09:39:12;9.36;86.24
66144;SHT31;52947;50.842;6.084;2023-02-12T09:41:59;9.36;85.71
66144;SHT31;52947;50.842;6.084;2023-02-12T09:44:37;9.17;86.26
66144;SHT31;52947;50.842;6.084;2023-02-12T09:47:12;9.17;86.02
66144;SHT31;52947;50.842;6.084;2023-02-12T09:49:52;9.19;85.78
66144;SHT31;52947;50.842;6.084;2023-02-12T09:52:25;9.12;86.10
66144;SHT31;52947;50.842;6.084;2023-02-12T09:54:55;9.09;85.96
66144;SHT31;52947;50.842;6.084;2023-02-12T09:57:26;9.26;86.27
66144;SHT31;52947;50.842;6.084;2023-02-12T09:59:57;9.22;85.72
66144;SHT31;52947;50.842;6.084;2023-02-12T10:02:26;9.26;86.28
66144;SHT31;52947;50.842;6.084;2023-02-12T10:04:54;9.22;85.60
66144;SHT31;52947;50.842;6.084;2023-02-12T10:07:37;9.30;85.49
66144;SHT31;52947;50.842;6.084;2023-02-12T10:10:24;9.15;84.45
66144;SHT31;52947;50.842;6.084;2023-02-12T10:12:59;9.20;85.08
66144;SHT31;52947;50.842;6.084;2023-02-12T10:15:36;8.90;84.53
66144;SHT31;52947;50.842;6.084;2023-02-12T10:18:30;9.05;85.01
66144;SHT31;52947;50.842;6.084;2023-02-12T10:21:12;9.17;85.28
66144;SHT31;52947;50.842;6.084;2023-02-12T10:23:52;9.29;84.80
66144;SHT31;52947;50.842;6.084;2023-02-12T10:26:28;9.43;84.71
66144;SHT31;52947;50.842;6.084;2023-02-12T10:29:04;9.60;84.11
66144;SHT31;52947;50.842;6.084;2023-02-12T10:31:39;9.64;83.73
66144;SHT31;52947;50.842;6.084;2023-02-12T10:34:14;9.75;83.92
66144;SHT31;52947;50.842;6.084;2023-02-12T10:36:46;9.64;82.95
66144;SHT31;52947;50.842;6.084;2023-02-12T10:39:20;9.41;83.23
66144;SHT31;52947;50.842;6.084;2023-02-12T10:41:54;9.50;83.60
66144;SHT31;52947;50.842;6.084;2023-02-12T10:44:23;9.70;83.43
66144;SHT31;52947;50.842;6.084;2023-02-12T10:46:50;9.60;82.88
66144;SHT31;52947;50.842;6.084;2023-02-12T10:49:19;9.67;83.35
66144;SHT31;52947;50.842;6.084;2023-02-12T10:52:11;9.91;83.34
66144;SHT31;52947;50.842;6.084;2023-02-12T10:54:43;9.91;82.38
66144;SHT31;52947;50.842;6.084;2023-02-12T10:57:19;9.98;81.25
66144;SHT31;52947;50.842;6.084;2023-02-12T10:59:50;9.84;82.14
66144;SHT31;52947;50.842;6.084;2023-02-12T11:02:25;9.65;82.50
66144;SHT31;52947;50.842;6.084;2023-02-12T11:04:54;9.78;83.01
66144;SHT31;52947;50.842;6.084;2023-02-12T11:07:24;9.89;82.91
66144;SHT31;52947;50.842;6.084;2023-02-12T11:09:54;9.98;82.88
66144;SHT31;52947;50.842;6.084;2023-02-12T11:12:30;10.09;82.23
66144;SHT31;52947;50.842;6.084;2023-02-12T11:15:00;10.01;82.18
66144;SHT31;52947;50.842;6.084;2023-02-12T11:17:33;10.09;82.03
66144;SHT31;52947;50.842;6.084;2023-02-12T11:20:19;9.68;81.59
66144;SHT31;52947;50.842;6.084;2023-02-12T11:22:53;9.74;82.24
66144;SHT31;52947;50.842;6.084;2023-02-12T11:25:23;9.57;82.09
66144;SHT31;52947;50.842;6.084;2023-02-12T11:28:05;9.37;82.48
66144;SHT31;52947;50.842;6.084;2023-02-12T11:30:33;9.54;82.94
66144;SHT31;52947;50.842;6.084;2023-02-12T11:33:16;9.29;81.36
66144;SHT31;52947;50.842;6.084;2023-02-12T11:35:50;9.37;81.92
66144;SHT31;52947;50.842;6.084;2023-02-12T11:38:23;9.41;81.60
66144;SHT31;52947;50.842;6.084;2023-02-12T11:40:55;9.48;81.50
66144;SHT31;52947;50.842;6.084;2023-02-12T11:43:26;9.43;81.12
66144;SHT31;52947;50.842;6.084;2023-02-12T11:45:58;9.34;81.91
66144;SHT31;52947;50.842;6.084;2023-02-12T11:48:30;9.31;81.77
66144;SHT31;52947;50.842;6.084;2023-02-12T11:51:02;9.64;80.54
66144;SHT31;52947;50.842;6.084;2023-02-12T11:53:32;9.77;81.26
66144;SHT31;52947;50.842;6.084;2023-02-12T11:56:04;9.91;80.92
66144;SHT31;52947;50.842;6.084;2023-02-12T11:58:34;9.92;80.52
66144;SHT31;52947;50.842;6.084;2023-02-12T12:01:04;9.75;80.57
66144;SHT31;52947;50.842;6.084;2023-02-12T12:03:40;9.82;80.79
66144;SHT31;52947;50.842;6.084;2023-02-12T12:06:18;9.95;80.95
66144;SHT31;52947;50.842;6.084;2023-02-12T12:08:53;9.68;80.87
66144;SHT31;52947;50.842;6.084;2023-02-12T12:11:27;9.81;81.06
66144;SHT31;52947;50.842;6.084;2023-02-12T12:14:01;9.89;81.32
66144;SHT31;52947;50.842;6.084;2023-02-12T12:16:33;9.79;80.82
66144;SHT31;52947;50.842;6.084;2023-02-12T12:19:26;9.67;81.50
66144;SHT31;52947;50.842;6.084;2023-02-12T12:22:21;9.58;80.59
66144;SHT31;52947;50.842;6.084;2023-02-12T12:24:54;9.68;80.82
66144;SHT31;52947;50.842;6.084;2023-02-12T12:27:27;9.77;80.56
66144;SHT31;52947;50.842;6.084;2023-02-12T12:30:21;9.50;81.79
66144;SHT31;52947;50.842;6.084;2023-02-12T12:32:53;9.44;82.05
66144;SHT31;52947;50.842;6.084;2023-02-12T12:35:29;9.37;82.16
66144;SHT31;52947;50.842;6.084;2023-02-12T12:38:02;9.44;81.58
66144;SHT31;52947;50.842;6.084;2023-02-12T12:40:41;9.50;81.63
66144;SHT31;52947;50.842;6.084;2023-02-12T12:43:14;9.33;82.37
66144;SHT31;52947;50.842;6.084;2023-02-12T12:46:11;9.46;82.17
66144;SHT31;52947;50.842;6.084;2023-02-12T12:48:50;9.46;82.45
66144;SHT31;52947;50.842;6.084;2023-02-12T12:51:26;9.36;82.02
66144;SHT31;52947;50.842;6.084;2023-02-12T12:54:11;9.06;82.59
66144;SHT31;52947;50.842;6.084;2023-02-12T12:56:53;9.17;83.09
66144;SHT31;52947;50.842;6.084;2023-02-12T12:59:45;8.95;83.18
66144;SHT31;52947;50.842;6.084;2023-02-12T13:02:47;8.95;83.45
66144;SHT31;52947;50.842;6.084;2023-02-12T13:05:22;9.13;83.44
66144;SHT31;52947;50.842;6.084;2023-02-12T13:08:03;9.31;82.66
66144;SHT31;52947;50.842;6.084;2023-02-12T13:10:42;9.38;82.51
66144;SHT31;52947;50.842;6.084;2023-02-12T13:13:20;9.38;82.31
66144;SHT31;52947;50.842;6.084;2023-02-12T13:15:57;9.43;82.24
66144;SHT31;52947;50.842;6.084;2023-02-12T13:18:38;9.30;81.71
66144;SHT31;52947;50.842;6.084;2023-02-12T13:21:14;9.16;81.95
66144;SHT31;52947;50.842;6.084;2023-02-12T13:23:49;9.15;82.45
66144;SHT31;52947;50.842;6.084;2023-02-12T13:26:23;8.99;82.59
66144;SHT31;52947;50.842;6.084;2023-02-12T13:29:00;8.97;83.05
66144;SHT31;52947;50.842;6.084;2023-02-12T13:31:29;8.95;83.55
66144;SHT31;52947;50.842;6.084;2023-02-12T13:34:03;8.92;83.62
66144;SHT31;52947;50.842;6.084;2023-02-12T13:36:35;8.86;83.92
66144;SHT31;52947;50.842;6.084;2023-02-12T13:39:11;8.73;84.30
66144;SHT31;52947;50.842;6.084;2023-02-12T13:41:46;8.88;84.32
66144;SHT31;52947;50.842;6.084;2023-02-12T13:44:21;8.97;84.03
66144;SHT31;52947;50.842;6.084;2023-02-12T13:47:01;9.16;83.70
66144;SHT31;52947;50.842;6.084;2023-02-12T13:49:39;9.26;83.33
66144;SHT31;52947;50.842;6.084;2023-02-12T13:52:12;9.38;82.94
66144;SHT31;52947;50.842;6.084;2023-02-12T13:54:51;9.16;83.72
66144;SHT31;52947;50.842;6.084;2023-02-12T13:57:20;8.88;83.92
66144;SHT31;52947;50.842;6.084;2023-02-12T13:59:49;8.95;84.07
66144;SHT31;52947;50.842;6.084;2023-02-12T14:02:41;9.03;84.01
66144;SHT31;52947;50.842;6.084;2023-02-12T14:05:23;9.16;83.77
66144;SHT31;52947;50.842;6.084;2023-02-12T14:07:54;9.19;83.29
66144;SHT31;52947;50.842;6.084;2023-02-12T14:10:25;9.31;83.02
66144;SHT31;52947;50.842;6.084;2023-02-12T14:12:58;9.29;83.42
66144;SHT31;52947;50.842;6.084;2023-02-12T14:15:36;9.27;83.24
66144;SHT31;52947;50.842;6.084;2023-02-12T14:18:29;9.12;83.63
66144;SHT31;52947;50.842;6.084;2023-02-12T14:24:49;8.72;84.58
66144;SHT31;52947;50.842;6.084;2023-02-12T14:27:25;8.90;84.86
66144;SHT31;52947;50.842;6.084;2023-02-12T14:35:46;8.80;85.01
66144;SHT31;52947;50.842;6.084;2023-02-12T14:41:22;8.72;85.40
66144;SHT31;52947;50.842;6.084;2023-02-12T14:44:44;8.78;85.32
66144;SHT31;52947;50.842;6.084;2023-02-12T14:50:17;8.82;85.42
66144;SHT31;52947;50.842;6.084;2023-02-12T14:52:52;8.78;85.53
66144;SHT31;52947;50.842;6.084;2023-02-12T14:55:26;8.79;85.52
66144;SHT31;52947;50.842;6.084;2023-02-12T14:58:00;8.80;85.52
66144;SHT31;52947;50.842;6.084;2023-02-12T15:00:34;8.86;85.48
66144;SHT31;52947;50.842;6.084;2023-02-12T15:03:21;8.86;85.39
66144;SHT31;52947;50.842;6.084;2023-02-12T15:05:57;8.79;85.41
66144;SHT31;52947;50.842;6.084;2023-02-12T15:08:32;8.82;85.42
66144;SHT31;52947;50.842;6.084;2023-02-12T15:11:13;8.82;85.42
66144;SHT31;52947;50.842;6.084;2023-02-12T15:13:48;8.78;85.62
66144;SHT31;52947;50.842;6.084;2023-02-12T15:16:28;8.78;85.64
66144;SHT31;52947;50.842;6.084;2023-02-12T15:18:59;8.64;85.77
66144;SHT31;52947;50.842;6.084;2023-02-12T15:21:30;8.65;85.92
66144;SHT31;52947;50.842;6.084;2023-02-12T15:24:05;8.69;85.79
66144;SHT31;52947;50.842;6.084;2023-02-12T15:26:36;8.64;86.19
66144;SHT31;52947;50.842;6.084;2023-02-12T15:29:16;8.59;86.15
66144;SHT31;52947;50.842;6.084;2023-02-12T15:31:50;8.68;86.01
66144;SHT31;52947;50.842;6.084;2023-02-12T15:34:22;8.66;85.99
66144;SHT31;52947;50.842;6.084;2023-02-12T15:36:51;8.69;86.20
66144;SHT31;52947;50.842;6.084;2023-02-12T15:39:20;8.72;85.98
66144;SHT31;52947;50.842;6.084;2023-02-12T15:41:49;8.75;86.13
66144;SHT31;52947;50.842;6.084;2023-02-12T15:44:24;8.69;86.04
66144;SHT31;52947;50.842;6.084;2023-02-12T15:46:58;8.71;85.94
66144;SHT31;52947;50.842;6.084;2023-02-12T15:49:30;8.69;86.05
66144;SHT31;52947;50.842;6.084;2023-02-12T15:52:02;8.72;86.09
66144;SHT31;52947;50.842;6.084;2023-02-12T15:54:31;8.69;86.12
66144;SHT31;52947;50.842;6.084;2023-02-12T15:57:00;8.71;86.08
66144;SHT31;52947;50.842;6.084;2023-02-12T15:59:29;8.66;86.24
66144;SHT31;52947;50.842;6.084;2023-02-12T16:01:57;8.64;86.44
66144;SHT31;52947;50.842;6.084;2023-02-12T16:04:29;8.59;86.45
66144;SHT31;52947;50.842;6.084;2023-02-12T16:06:59;8.55;86.58
66144;SHT31;52947;50.842;6.084;2023-02-12T16:09:29;8.51;86.73
66144;SHT31;52947;50.842;6.084;2023-02-12T16:11:59;8.48;86.97
66144;SHT31;52947;50.842;6.084;2023-02-12T16:14:34;8.52;86.97
66144;SHT31;52947;50.842;6.084;2023-02-12T16:17:19;8.48;87.16
66144;SHT31;52947;50.842;6.084;2023-02-12T16:19:53;8.44;87.40
66144;SHT31;52947;50.842;6.084;2023-02-12T16:22:29;8.40;87.31
66144;SHT31;52947;50.842;6.084;2023-02-12T16:24:57;8.35;87.55
66144;SHT31;52947;50.842;6.084;2023-02-12T16:27:28;8.37;87.43
66144;SHT31;52947;50.842;6.084;2023-02-12T16:29:59;8.37;87.64
66144;SHT31;52947;50.842;6.084;2023-02-12T16:32:33;8.35;87.61
66144;SHT31;52947;50.842;6.084;2023-02-12T16:35:06;8.33;87.71
66144;SHT31;52947;50.842;6.084;2023-02-12T16:37:46;8.33;87.82
66144;SHT31;52947;50.842;6.084;2023-02-12T16:40:24;8.28;87.75